Latest Weather Observations for Wynyard

IDT60801

Issued at 5:41 pm EST Wednesday 10 August 2022 (issued every 10 minutes, with the page automatically refreshed every 10 minutes)

About weather observations | Map of weather stations | Latest weather observations for TAS | Other Formats
Station Details ID: 091107 Name: WYNYARD AIRPORT Lat: -41.00 Lon: 145.73 Height: 12.0 m
Data from the previous 72 hours. | See also: Recent months at Wynyard
Date/Time
EST
Temp
°C
App
Temp
°C
Dew
Point
°C
Rel
Hum
%
Delta-T
°C
Wind Press
QNH
hPa
Press
MSL
hPa
Rain since
9am
mm
Dir  Spd
km/h
Gust
km/h
Spd
kts
Gust
kts
10/05:30pm 10.6 4.9 4.7 67 2.6 ENE 24 35 13 19 1023.8 1023.8 0.2
10/05:00pm 10.6 5.3 4.9 68 2.6 NE 22 32 12 17 1023.9 1023.9 0.2
10/04:30pm 10.9 5.2 5.0 67 2.7 NE 24 33 13 18 1024.3 1024.3 0.2
10/04:00pm 11.1 5.8 5.0 66 2.8 NE 22 30 12 16 1024.6 1024.6 0.2
10/03:30pm 11.3 6.0 5.2 66 2.8 NE 22 32 12 17 1024.9 1024.9 0.2
10/03:00pm 11.1 6.4 5.2 67 2.7 NE 19 26 10 14 1025.1 1025.1 0.2
10/02:30pm 11.2 5.7 4.2 62 3.1 NE 22 32 12 17 1025.4 1025.4 0.2
10/02:00pm 11.9 6.1 4.2 59 3.4 ENE 24 32 13 17 1025.8 1025.8 0.2
10/01:30pm 11.2 6.5 6.1 71 2.4 ENE 20 30 11 16 1026.3 1026.3 0.2
10/01:00pm 11.4 6.4 6.5 72 2.3 E 22 32 12 17 1026.8 1026.8 0.2
10/12:30pm 11.1 5.6 5.8 70 2.5 E 24 33 13 18 1027.3 1027.3 0.2
10/12:00pm 10.9 4.6 5.7 70 2.4 E 28 33 15 18 1027.8 1027.8 0.2
10/11:30am 10.5 5.4 5.9 73 2.1 E 22 28 12 15 1028.1 1028.1 0.2
10/11:00am 10.6 5.2 6.4 75 1.9 E 24 32 13 17 1028.3 1028.3 0.2
10/10:30am 9.6 4.0 5.2 74 2.0 E 24 32 13 17 1028.4 1028.4 0.2
10/10:00am 9.5 3.2 5.5 76 1.8 E 28 37 15 20 1028.2 1028.2 0.0
10/09:30am 9.2 3.6 5.4 77 1.7 ESE 24 33 13 18 1028.1 1028.1 0.0
10/09:00am 8.8 3.7 5.9 82 1.3 ESE 22 30 12 16 1028.2 1028.2 0.2
10/08:30am 8.6 3.9 5.9 83 1.2 ESE 20 28 11 15 1028.3 1028.3 0.2
10/08:00am 7.4 2.6 5.4 87 0.9 ESE 20 28 11 15 1028.4 1028.4 0.2
10/07:30am 6.7 3.8 6.6 99 0.0 SE 11 17 6 9 1028.7 1028.7 0.2
10/07:00am 5.1 2.6 5.0 99 0.0 S 7 11 4 6 1028.9 1028.9 0.0
10/06:30am 3.6 0.9 3.5 99 0.0 W 7 9 4 5 1028.9 1028.9 0.0
10/06:00am 2.2 -0.8 2.1 99 0.0 WSW 7 9 4 5 1028.6 1028.6 0.0
10/05:30am 3.0 -0.2 2.9 99 0.0 W 9 11 5 6 1028.2 1028.2 0.0
10/05:04am 3.6 1.1 3.5 99 0.0 WNW 6 9 3 5 1028.0 1028.0 0.0
10/05:00am 4.0 2.3 3.9 99 0.0 WNW 2 9 1 5 1028.0 1028.0 0.0
10/04:30am 4.7 2.7 4.6 99 0.0 WSW 4 7 2 4 1028.0 1028.0 0.0
10/04:26am 4.5 2.1 4.4 99 0.0 WSW 6 7 3 4 1027.9 1027.9 0.0
10/04:00am 4.4 1.8 4.3 99 0.0 WSW 7 9 4 5 1027.9 1027.9 0.0
10/03:30am 4.8 2.3 4.7 99 0.0 W 7 9 4 5 1027.9 1027.9 0.0
10/03:00am 4.5 1.6 4.4 99 0.0 WNW 9 11 5 6 1028.2 1028.2 0.0
10/02:30am 4.0 1.0 3.9 99 0.0 WNW 9 11 5 6 1028.3 1028.3 0.0
10/02:00am 2.6 -0.3 2.5 99 0.0 W 7 9 4 5 1028.4 1028.4 0.0
10/01:30am 2.6 -0.7 2.5 99 0.0 WNW 9 9 5 5 1028.6 1028.6 0.0
10/01:00am 2.3 -1.0 2.2 99 0.0 W 9 9 5 5 1028.8 1028.8 0.0
10/12:30am 2.0 -1.4 1.9 99 0.0 W 9 11 5 6 1028.7 1028.7 0.0
10/12:00am 2.9 -0.3 2.8 99 0.0 W 9 11 5 6 1028.4 1028.4 0.0
 
Date/Time
EST
Temp
°C
App
Temp
°C
Dew
Point
°C
Rel
Hum
%
Delta-T
°C
Wind Press
QNH
hPa
Press
MSL
hPa
Rain since
9am
mm
Dir  Spd
km/h
Gust
km/h
Spd
kts
Gust
kts
09/11:30pm 3.7 1.0 3.6 99 0.0 W 7 9 4 5 1028.3 1028.3 0.0
09/11:00pm 3.9 0.5 3.8 99 0.0 WNW 11 13 6 7 1028.5 1028.5 0.0
09/10:30pm 4.6 1.7 4.5 99 0.0 WNW 9 11 5 6 1028.8 1028.8 0.0
09/10:00pm 5.0 1.8 4.9 99 0.0 WNW 11 13 6 7 1029.0 1029.0 0.0
09/09:30pm 3.9 0.8 3.8 99 0.0 W 9 11 5 6 1028.8 1028.8 0.0
09/09:00pm 4.0 1.0 3.9 99 0.0 W 9 9 5 5 1028.7 1028.7 0.0
09/08:39pm 4.6 2.2 4.5 99 0.0 W 6 7 3 4 1028.6 1028.6 0.0
09/08:30pm 4.4 2.0 4.3 99 0.0 WSW 6 7 3 4 1028.5 1028.5 0.0
09/08:15pm 3.7 1.0 3.6 99 0.0 W 7 9 4 5 1028.5 1028.5 0.0
09/08:00pm 5.4 3.0 5.3 99 0.0 WSW 7 9 4 5 1028.5 1028.5 0.0
09/07:30pm 4.8 3.6 4.5 98 0.1 CALM 0 0 0 0 1028.4 1028.4 0.0
09/07:00pm 4.8 3.5 4.1 95 0.3 CALM 0 7 0 4 1028.0 1028.0 0.0
09/06:30pm 5.7 3.4 4.8 94 0.4 S 6 9 3 5 1027.8 1027.8 0.0
09/06:00pm 7.0 5.5 5.2 88 0.8 SW 2 6 1 3 1027.6 1027.6 0.0
09/05:30pm 10.0 8.1 6.9 81 1.5 NW 6 7 3 4 1027.4 1027.4 0.0
09/05:00pm 10.7 8.3 7.0 78 1.7 NW 9 13 5 7 1027.3 1027.3 0.0
09/04:30pm 11.3 8.6 7.2 76 2.0 NNW 11 17 6 9 1027.3 1027.3 0.0
09/04:00pm 11.5 7.9 6.6 72 2.3 NW 15 17 8 9 1027.3 1027.3 0.0
09/03:30pm 12.5 9.5 7.8 73 2.3 NW 13 19 7 10 1027.2 1027.2 0.0
09/03:00pm 12.0 8.7 6.5 69 2.6 N 13 17 7 9 1027.0 1027.0 0.0
09/02:30pm 12.3 9.1 6.8 69 2.6 NNW 13 19 7 10 1026.9 1026.9 0.0
09/02:00pm 11.8 8.7 7.1 73 2.2 N 13 19 7 10 1026.8 1026.8 0.0
09/01:30pm 12.2 9.3 8.1 76 2.0 NE 13 17 7 9 1026.9 1026.9 0.0
09/01:00pm 11.3 8.1 7.0 75 2.0 NE 13 15 7 8 1027.1 1027.1 0.0
09/12:30pm 11.0 8.1 6.7 75 2.0 NE 11 13 6 7 1027.7 1027.7 0.0
09/12:00pm 11.0 8.2 6.9 76 1.9 NE 11 13 6 7 1028.0 1028.0 0.0
09/11:30am 10.7 8.3 6.8 77 1.8 NE 9 13 5 7 1028.2 1028.2 0.0
09/11:00am 10.5 8.2 7.4 81 1.5 NE 9 13 5 7 1028.3 1028.3 0.0
09/10:30am 9.8 8.9 7.6 86 1.1 WNW 2 6 1 3 1028.3 1028.3 0.0
09/10:00am 8.5 6.7 7.3 92 0.6 WNW 6 7 3 4 1028.3 1028.3 0.0
09/09:30am 6.6 4.0 6.3 98 0.1 WNW 9 11 5 6 1028.3 1028.3 0.0
09/09:00am 5.2 2.0 5.1 99 0.0 WNW 11 13 6 7 1028.4 1028.4 0.0
09/08:30am 4.2 1.2 4.1 99 0.0 WNW 9 13 5 7 1028.3 1028.3 0.0
09/08:00am 2.6 -1.5 2.5 99 0.0 WNW 13 15 7 8 1027.9 1027.9 0.0
09/07:30am 1.4 -2.9 1.3 99 0.0 WNW 13 15 7 8 1027.8 1027.8 0.0
09/07:00am 1.8 -2.4 1.7 99 0.0 WNW 13 15 7 8 1027.5 1027.5 0.0
09/06:30am 1.1 -2.8 1.0 99 0.0 WNW 11 13 6 7 1027.2 1027.2 0.0
09/06:00am 1.4 -2.5 1.3 99 0.0 W 11 13 6 7 1027.0 1027.0 0.0
09/05:30am 2.0 -1.8 1.9 99 0.0 WNW 11 13 6 7 1026.8 1026.8 0.0
09/05:00am 1.8 -2.0 1.7 99 0.0 WNW 11 13 6 7 1026.6 1026.6 0.0
09/04:30am 1.6 -2.6 1.5 99 0.0 WNW 13 15 7 8 1026.5 1026.5 0.0
09/04:00am 2.5 -1.6 2.4 99 0.0 WNW 13 13 7 7 1026.2 1026.2 0.0
09/03:30am 2.8 -0.8 2.7 99 0.0 WNW 11 11 6 6 1026.3 1026.3 0.0
09/03:00am 2.0 -1.8 1.9 99 0.0 WNW 11 13 6 7 1026.4 1026.4 0.0
09/02:30am 1.9 -1.9 1.8 99 0.0 WNW 11 11 6 6 1026.5 1026.5 0.0
09/02:00am 2.6 -1.1 2.5 99 0.0 WNW 11 11 6 6 1026.6 1026.6 0.0
09/01:30am 2.9 -0.7 2.8 99 0.0 WNW 11 13 6 7 1026.5 1026.5 0.0
09/01:09am 3.1 -0.9 3.0 99 0.0 WNW 13 15 7 8 1026.4 1026.4 0.0
09/01:00am 3.5 -0.4 3.4 99 0.0 WNW 13 15 7 8 1026.4 1026.4 0.0
09/12:30am 3.5 0.0 3.4 99 0.0 WNW 11 13 6 7 1026.4 1026.4 0.0
09/12:17am 3.1 -0.5 3.0 99 0.0 WNW 11 13 6 7 1026.5 1026.5 0.0
09/12:11am 3.9 0.1 3.8 99 0.0 WNW 13 13 7 7 1026.4 1026.4 0.0
09/12:00am 4.0 0.6 3.9 99 0.0 WNW 11 13 6 7 1026.4 1026.4 0.0
 
Date/Time
EST
Temp
°C
App
Temp
°C
Dew
Point
°C
Rel
Hum
%
Delta-T
°C
Wind Press
QNH
hPa
Press
MSL
hPa
Rain since
9am
mm
Dir  Spd
km/h
Gust
km/h
Spd
kts
Gust
kts
08/11:55pm 3.8 0.7 3.7 99 0.0 WNW 9 11 5 6 1026.4 1026.4 0.0
08/11:31pm 5.3 2.1 5.2 99 0.0 WNW 11 13 6 7 1026.4 1026.4 0.0
08/11:30pm 5.3 2.1 5.2 99 0.0 WNW 11 13 6 7 1026.4 1026.4 0.0
08/11:00pm 4.6 1.3 4.5 99 0.0 WNW 11 11 6 6 1026.4 1026.4 0.0
08/10:30pm 5.2 2.4 5.1 99 0.0 WNW 9 13 5 7 1026.3 1026.3 0.0
08/10:10pm 5.4 2.6 5.3 99 0.0 WNW 9 11 5 6 1026.3 1026.3 0.0
08/10:00pm 4.9 2.0 4.8 99 0.0 WNW 9 11 5 6 1026.2 1026.2 0.0
08/09:36pm 6.2 4.0 6.1 99 0.0 W 7 9 4 5 1026.2 1026.2 0.0
08/09:30pm 6.5 4.3 6.4 99 0.0 W 7 9 4 5 1026.2 1026.2 0.0
08/09:28pm 6.5 4.5 6.4 99 0.0 WSW 6 9 3 5 1026.2 1026.2 0.0
08/09:10pm 5.4 2.6 5.1 98 0.1 W 9 9 5 5 1026.2 1026.2 0.0
08/09:03pm 6.7 4.2 6.6 99 0.0 W 9 9 5 5 1026.1 1026.1 0.0
08/09:00pm 7.2 4.8 7.1 99 0.0 W 9 9 5 5 1026.1 1026.1 0.0
08/08:30pm 7.6 5.8 7.0 96 0.3 SW 6 7 3 4 1026.1 1026.1 0.0
08/08:00pm 8.6 7.7 7.8 95 0.4 SSW 2 6 1 3 1026.0 1026.0 0.0
08/07:30pm 8.9 6.0 8.0 94 0.4 WSW 13 15 7 8 1025.9 1025.9 0.0
08/07:00pm 9.0 7.1 7.5 90 0.7 S 7 9 4 5 1025.5 1025.5 0.0
08/06:30pm 9.3 7.4 7.4 88 0.9 S 7 9 4 5 1025.5 1025.5 0.0
08/06:00pm 9.4 7.6 7.3 87 1.0 SE 6 7 3 4 1025.3 1025.3 0.0
08/05:30pm 9.7 6.9 7.1 84 1.2 E 11 13 6 7 1025.1 1025.1 0.0
08/05:00pm 10.1 7.7 7.0 81 1.5 E 9 13 5 7 1024.9 1024.9 0.0
08/04:30pm 10.2 6.6 6.9 80 1.6 E 15 19 8 10 1024.6 1024.6 0.0
08/04:00pm 10.4 7.2 6.9 79 1.6 E 13 17 7 9 1024.6 1024.6 0.0
08/03:30pm 10.3 6.6 6.3 76 1.9 E 15 17 8 9 1024.7 1024.7 0.0
08/03:00pm 10.6 7.3 6.6 76 1.9 ENE 13 17 7 9 1024.6 1024.6 0.0
08/02:30pm 10.5 6.8 6.3 75 2.0 E 15 20 8 11 1024.5 1024.5 0.0
08/02:00pm 10.7 7.0 6.5 75 2.0 E 15 20 8 11 1024.6 1024.6 0.0
08/01:30pm 10.7 6.6 6.3 74 2.1 E 17 22 9 12 1024.8 1024.8 0.0
08/01:00pm 10.9 6.7 5.9 71 2.3 E 17 22 9 12 1025.0 1025.0 0.0
08/12:30pm 11.3 7.6 6.4 72 2.3 E 15 20 8 11 1025.2 1025.2 0.0
08/12:00pm 10.6 6.5 6.0 73 2.1 E 17 22 9 12 1025.6 1025.6 0.0
08/11:30am 10.4 5.8 5.6 72 2.2 E 19 24 10 13 1025.7 1025.7 0.0
08/11:00am 10.3 5.4 5.3 71 2.3 E 20 26 11 14 1025.7 1025.7 0.0
08/10:30am 10.5 5.7 5.7 72 2.2 E 20 26 11 14 1025.6 1025.6 0.0
08/10:00am 10.0 5.6 5.0 71 2.2 E 17 22 9 12 1025.6 1025.6 0.0
08/09:30am 9.2 6.0 5.2 76 1.8 ESE 11 15 6 8 1025.6 1025.6 0.0
08/09:00am 6.9 4.9 6.3 96 0.3 SW 6 7 3 4 1025.7 1025.7 0.2
08/08:30am 4.7 2.2 4.6 99 0.0 WNW 7 9 4 5 1025.6 1025.6 0.2
08/08:00am 2.6 -0.7 2.5 99 0.0 W 9 9 5 5 1025.2 1025.2 0.2
08/07:30am 2.2 -0.8 2.1 99 0.0 WNW 7 9 4 5 1025.1 1025.1 0.2
08/07:00am 2.0 -1.1 1.4 96 0.2 W 7 9 4 5 1024.8 1024.8 0.2
08/06:30am 3.9 0.3 3.0 94 0.4 SE 11 15 6 8 1024.6 1024.6 0.2
08/06:00am 2.9 -0.3 2.8 99 0.0 SSE 9 15 5 8 1024.3 1024.3 0.2
08/05:30am 2.9 1.4 2.8 99 0.0 CALM 0 2 0 1 1024.2 1024.2 0.2
08/05:00am 3.9 1.8 3.8 99 0.0 WSW 4 7 2 4 1024.1 1024.1 0.2
08/04:30am 3.5 2.1 3.4 99 0.0 CALM 0 4 0 2 1023.9 1023.9 0.2
08/04:00am 4.0 1.5 3.9 99 0.0 S 6 7 3 4 1023.6 1023.6 0.2
08/03:30am 4.3 2.6 4.2 99 0.0 SW 2 6 1 3 1023.6 1023.6 0.2
08/03:00am 3.8 1.3 3.7 99 0.0 WSW 6 7 3 4 1023.7 1023.7 0.0
08/02:30am 4.3 2.6 4.2 99 0.0 W 2 6 1 3 1023.8 1023.8 0.0
08/02:00am 5.0 2.7 4.9 99 0.0 W 6 7 3 4 1023.8 1023.8 0.0
08/01:30am 4.4 2.4 4.3 99 0.0 WSW 4 9 2 5 1023.8 1023.8 0.0
08/01:00am 4.5 3.2 4.2 98 0.1 CALM 0 0 0 0 1023.8 1023.8 0.0
08/12:30am 4.9 2.6 4.6 98 0.1 WSW 6 9 3 5 1023.9 1023.9 0.0
08/12:00am 5.3 2.8 5.0 98 0.1 W 7 9 4 5 1023.9 1023.9 0.0
 
Date/Time
EST
Temp
°C
App
Temp
°C
Dew
Point
°C
Rel
Hum
%
Delta-T
°C
Wind Press
QNH
hPa
Press
MSL
hPa
Rain since
9am
mm
Dir  Spd
km/h
Gust
km/h
Spd
kts
Gust
kts
07/11:30pm 5.3 3.4 5.0 98 0.1 WSW 4 7 2 4 1023.7 1023.7 0.0
07/11:00pm 5.1 2.8 4.7 97 0.2 WSW 6 7 3 4 1023.7 1023.7 0.0
07/10:30pm 5.2 2.3 4.6 96 0.3 WNW 9 11 5 6 1023.7 1023.7 0.0
07/10:00pm 4.7 1.7 4.1 96 0.3 WNW 9 11 5 6 1023.6 1023.6 0.0
07/09:30pm 5.1 2.2 4.5 96 0.3 WNW 9 11 5 6 1023.3 1023.3 0.0
07/09:00pm 4.9 2.0 4.6 98 0.1 WNW 9 9 5 5 1023.2 1023.2 0.0
07/08:30pm 3.7 0.5 3.3 97 0.2 WSW 9 9 5 5 1022.9 1022.9 0.0
07/08:00pm 4.2 1.1 3.8 97 0.2 WNW 9 11 5 6 1022.8 1022.8 0.0
07/07:30pm 4.4 1.7 3.8 96 0.2 WSW 7 9 4 5 1022.6 1022.6 0.0
07/07:00pm 4.4 1.3 3.5 94 0.4 S 9 13 5 7 1022.3 1022.3 0.0
07/06:30pm 5.4 3.0 4.4 93 0.4 S 6 7 3 4 1021.9 1021.9 0.0
07/06:00pm 5.8 3.2 4.1 89 0.7 S 7 9 4 5 1021.8 1021.8 0.0

Other formats

Comma delimited format used in spreadsheet applications
http://www.bom.gov.au/fwo/IDT60801/IDT60801.95957.axf

JavaScript Object Notation format (JSON) in row-major order
http://www.bom.gov.au/fwo/IDT60801/IDT60801.95957.json

Data quality

Most of these data are generated automatically and are frequently updated. Quality checks on data are not normally performed. It is possible for incorrect values to appear. Refer to information at About Latest Weather Observations and please check the disclaimer before using these data.